Time;durP1;ratioP1;P1;durP2;ratioP2;P2;SDS_P1;SDS_P2;PMS_P1;PMS_P2;Temp;Humidity;BMP_temperature;BMP_pressure;BME280_temperature;BME280_humidity;BME280_pressure;Samples;Min_cycle;Max_cycle;Signal;HPM_P1;HPM_P2
2023/01/15 00:01:29;;;;;;;9.65;6.47;;;;;;;;;;5014375;28;20073;-59
2023/01/15 00:03:55;;;;;;;8.45;6.03;;;;;;;;;;5009713;28;20068;-61
2023/01/15 00:06:21;;;;;;;7.68;5.88;;;;;;;;;;5012677;28;20077;-60
2023/01/15 00:08:46;;;;;;;9.20;5.90;;;;;;;;;;5007220;28;20061;-61
2023/01/15 00:11:11;;;;;;;8.68;6.10;;;;;;;;;;5016860;28;20052;-62
2023/01/15 00:13:36;;;;;;;7.93;5.75;;;;;;;;;;4992571;28;20092;-61
2023/01/15 00:16:06;;;;;;;8.60;6.32;;;;;;;;;;5000456;28;20091;-61
2023/01/15 00:18:31;;;;;;;8.00;5.63;;;;;;;;;;4992295;28;20046;-61
2023/01/15 00:21:03;;;;;;;7.57;5.63;;;;;;;;;;5002454;28;20076;-60
2023/01/15 00:28:59;;;;;;;8.95;6.28;;;;;;;;;;5014438;28;20123;-61
2023/01/15 00:31:24;;;;;;;8.23;6.15;;;;;;;;;;4994208;28;20073;-59
2023/01/15 00:33:49;;;;;;;8.07;5.53;;;;;;;;;;4989586;28;20439;-62
2023/01/15 00:36:15;;;;;;;8.27;6.13;;;;;;;;;;4974184;28;20053;-62
2023/01/15 00:38:40;;;;;;;8.60;5.90;;;;;;;;;;5009831;28;20414;-57
2023/01/15 00:41:05;;;;;;;9.50;6.80;;;;;;;;;;4991839;28;20414;-60
2023/01/15 00:43:30;;;;;;;8.27;5.97;;;;;;;;;;4990423;28;20285;-58
2023/01/15 00:45:56;;;;;;;8.47;6.00;;;;;;;;;;5007429;28;20050;-58
2023/01/15 00:48:21;;;;;;;9.33;5.93;;;;;;;;;;4989622;28;20339;-61
2023/01/15 00:50:46;;;;;;;8.80;6.50;;;;;;;;;;4991639;28;20281;-61
2023/01/15 00:53:11;;;;;;;9.07;6.40;;;;;;;;;;4989910;28;20273;-62
2023/01/15 00:55:37;;;;;;;9.60;6.43;;;;;;;;;;5007132;28;20292;-62
2023/01/15 00:58:02;;;;;;;8.65;6.15;;;;;;;;;;4992843;28;20292;-59
2023/01/15 01:00:27;;;;;;;10.07;6.55;;;;;;;;;;5013433;28;20096;-61
2023/01/15 01:02:52;;;;;;;9.60;6.50;;;;;;;;;;5006538;28;20034;-61
2023/01/15 01:05:18;;;;;;;8.93;6.10;;;;;;;;;;4994076;28;20558;-61
2023/01/15 01:07:43;;;;;;;8.33;6.40;;;;;;;;;;5002405;28;20288;-62
2023/01/15 01:10:08;;;;;;;8.53;6.33;;;;;;;;;;4993633;28;20368;-60
2023/01/15 01:12:34;;;;;;;10.07;7.10;;;;;;;;;;5006991;28;20836;-62
2023/01/15 01:14:59;;;;;;;9.30;6.60;;;;;;;;;;4988793;28;20336;-60
2023/01/15 01:17:24;;;;;;;8.30;6.07;;;;;;;;;;5005283;28;20438;-61
2023/01/15 01:19:49;;;;;;;8.27;6.03;;;;;;;;;;5005367;28;20340;-62
2023/01/15 01:22:15;;;;;;;7.37;5.43;;;;;;;;;;5007269;28;20517;-63
2023/01/15 01:24:40;;;;;;;9.03;6.37;;;;;;;;;;5005569;28;20654;-60
2023/01/15 01:27:05;;;;;;;8.53;6.07;;;;;;;;;;5006479;28;20291;-59
2023/01/15 01:29:31;;;;;;;9.63;6.77;;;;;;;;;;5006807;28;20351;-59
2023/01/15 01:31:56;;;;;;;9.57;6.40;;;;;;;;;;4988414;28;20272;-59
2023/01/15 01:34:21;;;;;;;8.75;5.90;;;;;;;;;;4989081;28;20030;-62
2023/01/15 01:36:46;;;;;;;9.80;6.30;;;;;;;;;;4989370;28;20114;-61
2023/01/15 01:39:15;;;;;;;7.50;5.73;;;;;;;;;;5005325;28;20277;-60
2023/01/15 01:41:41;;;;;;;9.02;6.35;;;;;;;;;;5006962;28;20287;-59
2023/01/15 01:44:07;;;;;;;8.52;6.25;;;;;;;;;;5005356;28;20129;-60
2023/01/15 01:46:33;;;;;;;9.48;6.50;;;;;;;;;;5008435;28;20046;-60
2023/01/15 01:49:01;;;;;;;8.00;5.88;;;;;;;;;;5016663;28;20095;-61
2023/01/15 01:51:28;;;;;;;9.43;6.47;;;;;;;;;;5000970;28;20485;-61
2023/01/15 01:53:53;;;;;;;8.23;6.47;;;;;;;;;;4980379;28;20305;-61
2023/01/15 01:56:18;;;;;;;8.82;6.43;;;;;;;;;;4990184;28;20359;-60
2023/01/15 01:58:44;;;;;;;7.72;6.20;;;;;;;;;;4989941;28;20049;-59
2023/01/15 02:01:09;;;;;;;8.85;6.00;;;;;;;;;;5017048;28;20084;-63
2023/01/15 02:03:35;;;;;;;8.95;6.80;;;;;;;;;;4988381;28;20033;-60
2023/01/15 02:06:01;;;;;;;8.65;6.22;;;;;;;;;;4993563;28;20601;-59
2023/01/15 02:08:27;;;;;;;7.93;6.30;;;;;;;;;;4988609;28;20084;-61
2023/01/15 02:10:52;;;;;;;8.27;6.03;;;;;;;;;;4991567;28;20545;-63
2023/01/15 02:13:20;;;;;;;7.60;6.22;;;;;;;;;;4973281;28;20030;-63
2023/01/15 02:16:04;;;;;;;8.15;6.07;;;;;;;;;;5006564;28;20038;-60
2023/01/15 02:18:38;;;;;;;7.45;5.80;;;;;;;;;;5003758;28;20064;-61
2023/01/15 02:21:06;;;;;;;8.20;6.22;;;;;;;;;;4994473;28;20060;-61
2023/01/15 02:23:37;;;;;;;8.65;6.45;;;;;;;;;;5005366;28;20045;-60
2023/01/15 02:26:21;;;;;;;9.00;6.60;;;;;;;;;;5016410;28;20100;-59
2023/01/15 02:28:46;;;;;;;9.07;6.43;;;;;;;;;;4997850;28;20462;-60
2023/01/15 02:31:21;;;;;;;9.27;5.97;;;;;;;;;;5012448;28;20042;-63
2023/01/15 02:34:03;;;;;;;8.57;6.22;;;;;;;;;;5006133;28;20125;-57
2023/01/15 02:36:30;;;;;;;8.38;5.90;;;;;;;;;;4995105;28;20033;-59
2023/01/15 02:38:55;;;;;;;7.57;5.72;;;;;;;;;;5002420;28;20021;-59
2023/01/15 02:41:21;;;;;;;8.15;6.00;;;;;;;;;;4988141;28;20044;-60
2023/01/15 02:43:50;;;;;;;8.32;5.80;;;;;;;;;;4990346;28;20114;-58
2023/01/15 02:46:16;;;;;;;8.43;6.38;;;;;;;;;;5006703;28;20131;-58
2023/01/15 02:48:41;;;;;;;7.38;5.43;;;;;;;;;;5005938;28;20050;-60
2023/01/15 02:51:11;;;;;;;8.27;6.07;;;;;;;;;;4992267;28;20488;-62
2023/01/15 02:53:36;;;;;;;8.02;5.95;;;;;;;;;;4972487;28;20288;-61
2023/01/15 02:56:03;;;;;;;7.90;5.45;;;;;;;;;;4987300;28;20033;-60
2023/01/15 02:58:29;;;;;;;9.02;6.10;;;;;;;;;;4987441;28;20045;-61
2023/01/15 03:00:54;;;;;;;8.23;6.20;;;;;;;;;;5011110;28;20038;-59
2023/01/15 03:03:25;;;;;;;7.88;5.90;;;;;;;;;;5005173;28;20049;-60
2023/01/15 03:05:53;;;;;;;7.20;5.45;;;;;;;;;;5013645;28;20057;-60
2023/01/15 03:08:18;;;;;;;8.20;6.20;;;;;;;;;;4990052;28;20041;-58
2023/01/15 03:10:48;;;;;;;8.30;6.00;;;;;;;;;;5005009;28;21352;-58
2023/01/15 03:13:18;;;;;;;8.10;6.35;;;;;;;;;;4986834;28;20285;-62
2023/01/15 03:18:38;;;;;;;8.23;6.20;;;;;;;;;;5003230;28;20095;-60
2023/01/15 03:21:05;;;;;;;7.88;6.28;;;;;;;;;;4986798;28;20518;-61
2023/01/15 03:23:30;;;;;;;8.27;6.32;;;;;;;;;;5003886;28;20038;-62
2023/01/15 03:25:55;;;;;;;7.70;6.00;;;;;;;;;;5003264;28;20080;-59
2023/01/15 03:28:22;;;;;;;8.70;6.10;;;;;;;;;;5003173;28;20106;-60
2023/01/15 03:30:48;;;;;;;7.20;5.80;;;;;;;;;;4986350;28;20350;-62
2023/01/15 03:33:14;;;;;;;8.70;5.88;;;;;;;;;;5004911;28;20503;-60
2023/01/15 03:35:51;;;;;;;8.73;6.05;;;;;;;;;;5003593;28;20104;-61
2023/01/15 03:38:18;;;;;;;9.05;6.20;;;;;;;;;;4986295;28;20320;-60
2023/01/15 03:40:52;;;;;;;8.25;5.78;;;;;;;;;;5012519;28;20529;-59
2023/01/15 03:46:03;;;;;;;7.57;5.80;;;;;;;;;;5005114;28;20104;-68
2023/01/15 03:48:37;;;;;;;8.07;6.00;;;;;;;;;;5003966;28;20517;-61
2023/01/15 03:51:22;;;;;;;6.60;5.38;;;;;;;;;;5011539;28;20112;-61
2023/01/15 03:53:48;;;;;;;7.47;5.78;;;;;;;;;;5011935;28;20046;-61
2023/01/15 03:56:13;;;;;;;8.30;6.38;;;;;;;;;;5002719;28;20638;-62
2023/01/15 03:58:40;;;;;;;7.60;5.90;;;;;;;;;;5004213;28;20045;-59
2023/01/15 04:01:06;;;;;;;8.25;6.28;;;;;;;;;;5004414;28;20045;-60
2023/01/15 04:03:32;;;;;;;8.07;5.93;;;;;;;;;;5005320;28;20034;-62
2023/01/15 04:05:58;;;;;;;6.88;5.47;;;;;;;;;;4994898;28;20386;-60
2023/01/15 04:08:23;;;;;;;6.93;5.43;;;;;;;;;;4986681;28;20505;-61
2023/01/15 04:10:49;;;;;;;7.78;6.00;;;;;;;;;;4988680;28;20034;-59
2023/01/15 04:13:15;;;;;;;6.90;5.35;;;;;;;;;;4987230;28;20129;-61
2023/01/15 04:15:40;;;;;;;7.90;6.20;;;;;;;;;;4993530;28;20579;-62
2023/01/15 04:18:05;;;;;;;7.83;6.00;;;;;;;;;;5004870;28;20819;-61
2023/01/15 04:20:30;;;;;;;7.37;5.50;;;;;;;;;;4991206;28;20289;-61
2023/01/15 04:22:56;;;;;;;8.00;5.90;;;;;;;;;;5004081;28;20281;-60
2023/01/15 04:25:21;;;;;;;7.70;5.90;;;;;;;;;;5012882;28;20363;-62
2023/01/15 04:27:46;;;;;;;7.50;5.90;;;;;;;;;;4993725;28;20042;-59
2023/01/15 04:30:12;;;;;;;8.15;5.82;;;;;;;;;;5004828;28;20065;-61
2023/01/15 04:32:37;;;;;;;8.65;6.00;;;;;;;;;;4989486;28;20591;-60
2023/01/15 04:35:02;;;;;;;8.75;6.40;;;;;;;;;;4999065;28;20030;-62
2023/01/15 04:37:27;;;;;;;8.55;6.13;;;;;;;;;;5012184;28;20034;-58
2023/01/15 04:39:53;;;;;;;7.13;5.77;;;;;;;;;;4990962;28;20041;-63
2023/01/15 04:45:02;;;;;;;7.97;5.85;;;;;;;;;;5007677;28;20118;-62
2023/01/15 04:47:28;;;;;;;7.97;5.95;;;;;;;;;;4992669;28;20142;-58
2023/01/15 04:49:54;;;;;;;7.68;5.60;;;;;;;;;;4989414;28;20596;-60
2023/01/15 04:52:19;;;;;;;8.47;6.20;;;;;;;;;;4989732;28;20045;-58
2023/01/15 04:54:44;;;;;;;7.60;5.80;;;;;;;;;;4994391;28;20891;-60
2023/01/15 04:57:10;;;;;;;7.43;5.43;;;;;;;;;;5017953;28;20280;-60
2023/01/15 04:59:35;;;;;;;7.57;5.88;;;;;;;;;;4989679;28;20493;-61
2023/01/15 05:02:00;;;;;;;8.33;6.33;;;;;;;;;;5007865;28;20045;-60
2023/01/15 05:04:25;;;;;;;8.60;5.80;;;;;;;;;;5007509;28;20284;-62
2023/01/15 05:06:52;;;;;;;7.60;5.60;;;;;;;;;;5014966;28;20313;-59
2023/01/15 05:09:17;;;;;;;8.25;5.82;;;;;;;;;;5012163;28;20033;-61
2023/01/15 05:11:42;;;;;;;8.03;5.73;;;;;;;;;;5010354;28;20049;-57
2023/01/15 05:14:07;;;;;;;7.40;5.80;;;;;;;;;;5006044;28;20281;-60
2023/01/15 05:16:34;;;;;;;8.27;6.28;;;;;;;;;;4972755;28;20495;-60
2023/01/15 05:19:00;;;;;;;7.38;6.18;;;;;;;;;;5006742;28;20042;-59
2023/01/15 05:21:27;;;;;;;7.40;5.50;;;;;;;;;;4989120;28;20049;-58
2023/01/15 05:23:53;;;;;;;7.65;6.05;;;;;;;;;;5005818;28;20030;-61
2023/01/15 05:26:18;;;;;;;8.00;6.05;;;;;;;;;;5004507;28;20066;-58
2023/01/15 05:28:44;;;;;;;7.32;5.63;;;;;;;;;;5006948;28;20045;-61
2023/01/15 05:31:13;;;;;;;7.07;5.47;;;;;;;;;;5005251;28;20531;-59
2023/01/15 05:33:38;;;;;;;7.20;5.78;;;;;;;;;;4987875;28;20117;-61
2023/01/15 05:36:04;;;;;;;7.93;5.90;;;;;;;;;;4977309;28;20216;-61
2023/01/15 05:38:29;;;;;;;6.95;5.50;;;;;;;;;;4991282;28;20042;-58
2023/01/15 05:40:55;;;;;;;7.90;5.90;;;;;;;;;;4986272;28;20424;-62
2023/01/15 05:43:20;;;;;;;9.05;6.05;;;;;;;;;;5005459;28;20662;-62
2023/01/15 05:45:45;;;;;;;7.10;5.75;;;;;;;;;;4977272;28;20133;-61
2023/01/15 05:48:10;;;;;;;7.30;5.47;;;;;;;;;;4986893;28;20034;-59
2023/01/15 05:50:36;;;;;;;7.17;5.50;;;;;;;;;;4984123;28;20292;-58
2023/01/15 05:53:01;;;;;;;7.28;5.68;;;;;;;;;;5010726;28;20285;-60
2023/01/15 05:55:26;;;;;;;6.93;5.53;;;;;;;;;;4993768;28;20042;-60
2023/01/15 05:57:51;;;;;;;7.57;5.55;;;;;;;;;;4986437;28;20173;-60
2023/01/15 06:00:17;;;;;;;7.53;5.80;;;;;;;;;;4985484;28;20529;-61
2023/01/15 06:02:42;;;;;;;7.35;5.53;;;;;;;;;;4989217;28;20269;-67
2023/01/15 06:05:08;;;;;;;8.32;5.72;;;;;;;;;;4997984;28;20072;-63
2023/01/15 06:07:33;;;;;;;7.93;5.70;;;;;;;;;;4986137;28;20057;-61
2023/01/15 06:09:58;;;;;;;7.10;5.55;;;;;;;;;;4989370;28;20475;-64
2023/01/15 06:12:23;;;;;;;8.43;5.47;;;;;;;;;;5007274;28;20149;-60
2023/01/15 06:14:49;;;;;;;7.40;5.43;;;;;;;;;;5005481;28;20587;-61
2023/01/15 06:17:14;;;;;;;7.53;5.50;;;;;;;;;;4976447;28;20057;-60
2023/01/15 06:19:39;;;;;;;7.17;5.03;;;;;;;;;;5013395;28;20816;-59
2023/01/15 06:22:04;;;;;;;7.47;5.30;;;;;;;;;;4991014;28;20399;-58
2023/01/15 06:24:30;;;;;;;8.37;5.40;;;;;;;;;;5014197;28;20053;-60
2023/01/15 06:26:55;;;;;;;8.00;5.33;;;;;;;;;;5017531;28;20305;-60
2023/01/15 06:29:20;;;;;;;7.27;5.60;;;;;;;;;;5012993;28;20288;-63
2023/01/15 06:31:46;;;;;;;6.95;5.10;;;;;;;;;;4994180;28;20922;-60
2023/01/15 06:34:11;;;;;;;6.53;4.93;;;;;;;;;;5005630;28;20049;-60
2023/01/15 06:36:36;;;;;;;7.23;5.30;;;;;;;;;;5003618;28;20565;-62
2023/01/15 06:39:02;;;;;;;7.95;5.07;;;;;;;;;;5006105;28;20343;-61
2023/01/15 06:49:39;;;;;;;7.65;5.03;;;;;;;;;;5012843;28;20481;-60
2023/01/15 06:52:04;;;;;;;9.50;5.10;;;;;;;;;;5002149;28;20105;-58
2023/01/15 06:54:30;;;;;;;9.25;5.35;;;;;;;;;;4990319;28;20049;-61
2023/01/15 06:56:55;;;;;;;8.60;5.13;;;;;;;;;;5008312;28;20038;-60
2023/01/15 06:59:20;;;;;;;9.70;4.95;;;;;;;;;;4994781;28;20034;-58
2023/01/15 07:01:46;;;;;;;15.60;6.33;;;;;;;;;;4992102;28;20037;-62
2023/01/15 07:04:11;;;;;;;8.07;4.80;;;;;;;;;;4988567;28;20905;-60
2023/01/15 07:06:36;;;;;;;7.83;5.10;;;;;;;;;;5014193;28;20292;-62
2023/01/15 07:09:01;;;;;;;9.90;4.70;;;;;;;;;;5008267;28;20284;-63
2023/01/15 07:11:27;;;;;;;7.28;4.93;;;;;;;;;;5004747;28;20434;-64
2023/01/15 07:14:04;;;;;;;6.40;5.00;;;;;;;;;;5005300;28;20053;-60
2023/01/15 07:16:33;;;;;;;7.88;5.10;;;;;;;;;;5003364;28;20129;-57
2023/01/15 07:18:58;;;;;;;7.97;4.65;;;;;;;;;;4987445;28;20038;-62
2023/01/15 07:21:24;;;;;;;7.75;4.78;;;;;;;;;;5004269;28;20572;-63
2023/01/15 07:23:49;;;;;;;7.53;4.93;;;;;;;;;;5005039;28;20410;-63
2023/01/15 07:26:14;;;;;;;6.50;4.67;;;;;;;;;;5005203;28;20046;-60
2023/01/15 07:28:39;;;;;;;7.03;5.00;;;;;;;;;;5005310;28;20277;-59
2023/01/15 07:31:05;;;;;;;7.13;5.03;;;;;;;;;;5005112;28;20281;-61
2023/01/15 07:33:30;;;;;;;6.47;4.70;;;;;;;;;;4987332;28;20982;-62
2023/01/15 07:35:55;;;;;;;6.47;4.87;;;;;;;;;;4987042;28;20030;-61
2023/01/15 07:38:21;;;;;;;6.32;4.60;;;;;;;;;;5006493;28;20303;-61
2023/01/15 07:49:44;;;;;;;6.28;4.80;;;;;;;;;;5007437;28;20503;-63
2023/01/15 07:51:43;;;;;;;6.70;4.65;;;;;;;;;;4994934;28;20548;-60
2023/01/15 07:54:08;;;;;;;5.77;4.40;;;;;;;;;;5013759;28;20531;-61
2023/01/15 07:56:33;;;;;;;6.10;4.70;;;;;;;;;;4999971;28;20762;-62
2023/01/15 07:58:58;;;;;;;6.88;5.05;;;;;;;;;;4977588;28;20285;-58
2023/01/15 08:01:24;;;;;;;5.77;4.30;;;;;;;;;;4987284;28;20041;-61
2023/01/15 08:03:49;;;;;;;6.23;4.47;;;;;;;;;;5016380;28;20288;-60
2023/01/15 08:06:14;;;;;;;7.13;4.57;;;;;;;;;;5009340;28;20168;-60
2023/01/15 08:08:39;;;;;;;7.27;4.33;;;;;;;;;;5008029;28;20485;-58
2023/01/15 08:16:40;;;;;;;6.07;4.70;;;;;;;;;;4990280;28;20041;-60
2023/01/15 08:19:05;;;;;;;6.60;4.40;;;;;;;;;;5001492;28;20475;-60
2023/01/15 08:21:31;;;;;;;6.13;4.53;;;;;;;;;;4990129;28;20417;-58
2023/01/15 08:23:56;;;;;;;6.15;4.40;;;;;;;;;;5008123;28;20284;-58
2023/01/15 08:26:21;;;;;;;6.10;4.43;;;;;;;;;;5006845;28;20089;-59
2023/01/15 08:28:46;;;;;;;6.10;4.40;;;;;;;;;;5005377;28;20308;-57
2023/01/15 08:31:11;;;;;;;6.93;4.73;;;;;;;;;;5000537;28;20277;-60
2023/01/15 08:33:37;;;;;;;6.20;4.87;;;;;;;;;;5006710;28;20116;-62
2023/01/15 08:36:02;;;;;;;6.47;4.50;;;;;;;;;;5008807;28;20736;-61
2023/01/15 08:38:28;;;;;;;7.32;4.75;;;;;;;;;;5013364;28;20553;-59
2023/01/15 08:40:59;;;;;;;6.88;4.97;;;;;;;;;;4989177;28;20030;-60
2023/01/15 08:43:25;;;;;;;5.93;4.30;;;;;;;;;;5007254;28;20559;-62
2023/01/15 08:45:51;;;;;;;5.18;4.28;;;;;;;;;;4994893;28;20045;-59
2023/01/15 08:48:16;;;;;;;5.88;4.35;;;;;;;;;;4996518;28;20519;-61
2023/01/15 08:50:42;;;;;;;6.10;4.78;;;;;;;;;;5005888;28;20026;-57
2023/01/15 08:53:07;;;;;;;5.47;4.32;;;;;;;;;;5011243;28;20042;-62
2023/01/15 08:55:32;;;;;;;6.10;4.53;;;;;;;;;;5005152;28;20514;-61
2023/01/15 08:57:57;;;;;;;5.97;4.47;;;;;;;;;;5008192;28;21033;-59
2023/01/15 09:00:23;;;;;;;5.53;4.27;;;;;;;;;;5009516;28;20295;-59
2023/01/15 09:02:49;;;;;;;6.32;4.80;;;;;;;;;;5013417;28;20037;-62
2023/01/15 09:05:14;;;;;;;5.50;4.18;;;;;;;;;;5009895;28;20048;-60
2023/01/15 09:07:39;;;;;;;5.93;4.45;;;;;;;;;;4990386;28;20471;-60
2023/01/15 09:10:05;;;;;;;5.60;4.25;;;;;;;;;;5010869;28;20048;-60
2023/01/15 09:12:30;;;;;;;6.25;4.65;;;;;;;;;;5007777;28;20103;-62
2023/01/15 09:14:55;;;;;;;6.60;4.73;;;;;;;;;;5005045;28;20034;-59
2023/01/15 09:17:21;;;;;;;7.90;4.67;;;;;;;;;;5004241;28;20277;-62
2023/01/15 09:19:46;;;;;;;5.82;4.35;;;;;;;;;;5005784;28;20328;-59
2023/01/15 09:22:11;;;;;;;5.57;4.07;;;;;;;;;;5004665;28;20483;-62
2023/01/15 09:24:36;;;;;;;5.43;4.17;;;;;;;;;;5004315;28;20495;-62
2023/01/15 09:27:02;;;;;;;6.83;4.53;;;;;;;;;;5004512;28;20299;-61
2023/01/15 09:29:27;;;;;;;5.63;4.63;;;;;;;;;;5005771;28;20280;-60
2023/01/15 09:31:52;;;;;;;6.97;4.37;;;;;;;;;;4988623;28;20037;-63
2023/01/15 09:34:17;;;;;;;5.25;4.20;;;;;;;;;;5004614;28;20281;-63
2023/01/15 09:36:45;;;;;;;6.35;4.53;;;;;;;;;;5005758;28;20142;-62
2023/01/15 09:39:10;;;;;;;5.05;4.13;;;;;;;;;;5005072;28;20092;-61
2023/01/15 09:42:06;;;;;;;6.07;4.40;;;;;;;;;;5003958;28;20042;-59
2023/01/15 09:44:44;;;;;;;6.18;4.15;;;;;;;;;;5003337;28;20061;-61
2023/01/15 09:47:25;;;;;;;5.45;4.07;;;;;;;;;;5005198;28;20058;-59
2023/01/15 09:50:00;;;;;;;5.55;3.80;;;;;;;;;;5012585;28;20029;-60
2023/01/15 09:52:30;;;;;;;5.45;4.22;;;;;;;;;;5018366;28;20576;-62
2023/01/15 09:55:04;;;;;;;6.53;4.45;;;;;;;;;;4972059;28;20396;-61
2023/01/15 09:57:30;;;;;;;5.18;4.00;;;;;;;;;;5002885;28;20088;-61
2023/01/15 10:00:01;;;;;;;5.63;4.03;;;;;;;;;;5012198;28;20045;-56
2023/01/15 10:02:33;;;;;;;4.72;3.78;;;;;;;;;;4997107;28;20041;-60
2023/01/15 10:05:03;;;;;;;6.00;4.55;;;;;;;;;;4987310;28;20014;-60
2023/01/15 10:07:40;;;;;;;5.53;4.20;;;;;;;;;;4989744;28;20124;-58
2023/01/15 10:10:10;;;;;;;5.95;3.92;;;;;;;;;;4988437;28;20046;-60
2023/01/15 10:12:35;;;;;;;5.72;4.22;;;;;;;;;;5005354;28;20037;-58
2023/01/15 10:15:04;;;;;;;5.90;4.65;;;;;;;;;;5006651;28;20034;-59
2023/01/15 10:17:49;;;;;;;5.13;4.10;;;;;;;;;;5003542;28;20502;-58
2023/01/15 10:20:33;;;;;;;5.57;3.83;;;;;;;;;;5003955;28;20115;-59
2023/01/15 10:23:01;;;;;;;5.90;4.22;;;;;;;;;;5005610;28;20026;-62
2023/01/15 10:25:27;;;;;;;8.45;4.10;;;;;;;;;;5004032;28;20038;-62
2023/01/15 10:27:53;;;;;;;5.07;4.00;;;;;;;;;;5005421;28;20513;-61
2023/01/15 10:30:28;;;;;;;5.77;4.23;;;;;;;;;;5011568;28;20085;-60
2023/01/15 10:32:57;;;;;;;4.65;3.95;;;;;;;;;;5010108;28;20351;-60
2023/01/15 10:35:37;;;;;;;5.72;4.32;;;;;;;;;;5003923;28;20195;-62
2023/01/15 10:38:15;;;;;;;5.53;4.30;;;;;;;;;;5001612;28;20037;-59
2023/01/15 10:40:40;;;;;;;5.50;4.00;;;;;;;;;;5004748;28;20045;-61
2023/01/15 10:43:15;;;;;;;5.47;4.33;;;;;;;;;;5003604;28;20446;-61
2023/01/15 10:45:40;;;;;;;4.57;3.80;;;;;;;;;;5006351;28;20293;-60
2023/01/15 10:48:11;;;;;;;5.43;4.20;;;;;;;;;;5005158;28;20095;-61
2023/01/15 10:50:36;;;;;;;5.35;4.10;;;;;;;;;;5002423;28;20320;-59
2023/01/15 10:53:07;;;;;;;5.50;4.37;;;;;;;;;;4986861;28;20061;-61
2023/01/15 10:55:40;;;;;;;5.40;4.18;;;;;;;;;;5004853;28;20289;-59
2023/01/15 10:58:28;;;;;;;6.70;4.28;;;;;;;;;;5004576;28;20065;-61
2023/01/15 11:00:55;;;;;;;5.97;4.25;;;;;;;;;;5003440;28;20048;-61
2023/01/15 11:03:29;;;;;;;6.28;4.10;;;;;;;;;;4992713;28;20042;-61
2023/01/15 11:05:54;;;;;;;5.05;3.85;;;;;;;;;;5015992;28;20407;-61
2023/01/15 11:08:22;;;;;;;5.53;4.03;;;;;;;;;;5007480;28;20449;-58
2023/01/15 11:10:47;;;;;;;6.18;4.53;;;;;;;;;;4994134;28;20673;-61
2023/01/15 11:21:30;;;;;;;5.68;4.20;;;;;;;;;;5004371;28;20124;-62
2023/01/15 11:23:56;;;;;;;5.80;4.20;;;;;;;;;;5003035;28;20089;-62
2023/01/15 11:26:23;;;;;;;5.63;4.13;;;;;;;;;;5002205;28;20045;-60
2023/01/15 11:28:48;;;;;;;6.18;4.18;;;;;;;;;;5002223;28;20032;-61
2023/01/15 11:31:14;;;;;;;5.10;3.72;;;;;;;;;;5004462;28;20045;-58
2023/01/15 11:33:39;;;;;;;5.82;4.15;;;;;;;;;;4988284;28;20669;-63
2023/01/15 11:36:05;;;;;;;6.07;4.45;;;;;;;;;;4988562;28;20499;-60
2023/01/15 11:38:41;;;;;;;4.68;3.83;;;;;;;;;;4973382;28;20058;-62
2023/01/15 11:41:15;;;;;;;5.63;4.10;;;;;;;;;;4992589;28;20045;-62
2023/01/15 11:51:52;;;;;;;5.20;3.90;;;;;;;;;;5007838;28;20063;-61
2023/01/15 11:54:17;;;;;;;6.27;4.43;;;;;;;;;;5007194;28;20046;-62
2023/01/15 11:56:43;;;;;;;5.50;4.18;;;;;;;;;;5006973;28;20288;-61
2023/01/15 11:59:09;;;;;;;5.47;4.22;;;;;;;;;;5017127;28;20033;-63
2023/01/15 12:01:35;;;;;;;6.13;4.50;;;;;;;;;;5000610;28;20525;-59
2023/01/15 12:04:02;;;;;;;4.80;3.92;;;;;;;;;;4991432;28;20030;-59
2023/01/15 12:06:28;;;;;;;5.57;4.43;;;;;;;;;;4990164;28;20050;-57
2023/01/15 12:08:59;;;;;;;5.82;4.28;;;;;;;;;;5007922;28;20030;-61
2023/01/15 12:11:43;;;;;;;5.45;4.15;;;;;;;;;;5007001;28;20386;-59
2023/01/15 12:14:27;;;;;;;5.63;4.07;;;;;;;;;;5005231;28;20395;-57
2023/01/15 12:17:05;;;;;;;5.53;4.30;;;;;;;;;;5005226;28;20049;-58
2023/01/15 12:19:49;;;;;;;6.22;4.25;;;;;;;;;;5007474;28;20070;-61
2023/01/15 12:22:15;;;;;;;5.00;4.22;;;;;;;;;;5008485;28;20137;-59
2023/01/15 12:24:54;;;;;;;5.05;4.03;;;;;;;;;;5006510;28;20542;-64
2023/01/15 12:27:23;;;;;;;4.97;3.80;;;;;;;;;;4999508;28;20609;-60
2023/01/15 12:29:59;;;;;;;4.90;4.00;;;;;;;;;;4988353;28;20507;-61
2023/01/15 12:32:28;;;;;;;5.53;4.50;;;;;;;;;;5013061;28;20383;-62
2023/01/15 12:35:03;;;;;;;5.70;4.20;;;;;;;;;;4991437;28;20129;-60
2023/01/15 12:37:31;;;;;;;6.05;4.32;;;;;;;;;;5005031;28;20121;-62
2023/01/15 12:40:08;;;;;;;5.78;4.20;;;;;;;;;;5006949;28;20033;-58
2023/01/15 12:45:19;;;;;;;5.63;3.80;;;;;;;;;;4999348;28;20098;-61
2023/01/15 12:47:48;;;;;;;5.82;4.13;;;;;;;;;;4991413;28;20048;-60
2023/01/15 12:50:32;;;;;;;5.28;4.22;;;;;;;;;;5005577;28;20041;-61
2023/01/15 12:53:03;;;;;;;5.57;4.00;;;;;;;;;;5002185;28;20041;-62
2023/01/15 12:55:29;;;;;;;5.47;4.13;;;;;;;;;;5009337;28;20042;-60
2023/01/15 12:58:04;;;;;;;5.55;4.20;;;;;;;;;;4974039;28;20053;-61
2023/01/15 13:00:36;;;;;;;4.88;3.90;;;;;;;;;;5000377;28;20072;-60
2023/01/15 13:03:04;;;;;;;5.80;4.13;;;;;;;;;;5010535;28;20514;-60
2023/01/15 13:05:31;;;;;;;4.90;3.90;;;;;;;;;;5006732;28;20038;-60
2023/01/15 13:07:56;;;;;;;5.13;4.20;;;;;;;;;;5004834;28;20081;-59
2023/01/15 13:10:22;;;;;;;4.93;3.80;;;;;;;;;;5006792;28;20034;-59
2023/01/15 13:12:47;;;;;;;5.13;4.07;;;;;;;;;;4987900;28;20083;-59
2023/01/15 13:15:13;;;;;;;4.82;4.10;;;;;;;;;;5004262;28;20065;-57
2023/01/15 13:17:58;;;;;;;5.43;4.13;;;;;;;;;;4975072;28;20041;-61
2023/01/15 13:20:23;;;;;;;5.03;3.70;;;;;;;;;;5006452;28;20050;-61
2023/01/15 13:23:00;;;;;;;4.90;3.90;;;;;;;;;;5006426;28;20103;-63
2023/01/15 13:25:25;;;;;;;4.38;3.70;;;;;;;;;;5005594;28;20045;-60
2023/01/15 13:28:00;;;;;;;5.30;4.13;;;;;;;;;;5000839;28;20453;-61
2023/01/15 13:30:43;;;;;;;5.05;4.13;;;;;;;;;;5004959;28;20684;-59
2023/01/15 13:33:12;;;;;;;4.95;4.00;;;;;;;;;;5006074;28;20129;-61
2023/01/15 13:35:38;;;;;;;;;;;;;;;;;;4998645;28;20137;-59
2023/01/15 13:38:04;;;;;;;5.03;3.80;;;;;;;;;;5004980;28;20000;-57
2023/01/15 13:40:33;;;;;;;4.78;3.92;;;;;;;;;;5006508;28;20038;-62
2023/01/15 13:42:59;;;;;;;5.38;4.15;;;;;;;;;;4987693;28;20037;-57
2023/01/15 13:45:28;;;;;;;5.20;4.07;;;;;;;;;;4987982;28;20049;-61
2023/01/15 13:47:55;;;;;;;5.70;4.03;;;;;;;;;;5004316;28;20041;-63
2023/01/15 13:50:28;;;;;;;5.45;3.92;;;;;;;;;;5003824;28;20076;-62
2023/01/15 13:53:04;;;;;;;4.82;3.70;;;;;;;;;;5004101;28;20038;-60
2023/01/15 13:55:31;;;;;;;4.85;4.05;;;;;;;;;;4989280;28;21062;-61
2023/01/15 13:57:56;;;;;;;4.85;3.88;;;;;;;;;;4974842;28;20037;-58
2023/01/15 14:00:31;;;;;;;4.40;3.57;;;;;;;;;;5005416;28;20428;-61
2023/01/15 14:03:00;;;;;;;4.80;4.00;;;;;;;;;;5009657;28;20812;-60
2023/01/15 14:05:32;;;;;;;5.25;3.75;;;;;;;;;;4991124;28;20245;-63
2023/01/15 14:08:00;;;;;;;5.20;3.70;;;;;;;;;;4989112;28;20456;-62
2023/01/15 14:10:33;;;;;;;6.45;4.38;;;;;;;;;;4987503;28;20033;-60
2023/01/15 14:12:58;;;;;;;14.63;4.50;;;;;;;;;;5003595;28;20100;-60
2023/01/15 14:15:41;;;;;;;11.10;5.90;;;;;;;;;;5012311;28;20049;-62
2023/01/15 14:18:16;;;;;;;12.48;6.93;;;;;;;;;;4996468;28;20331;-62
2023/01/15 14:20:53;;;;;;;11.75;7.25;;;;;;;;;;5000334;28;20065;-62
2023/01/15 14:23:19;;;;;;;10.52;7.38;;;;;;;;;;5004719;28;20033;-59
2023/01/15 14:25:50;;;;;;;9.80;7.97;;;;;;;;;;5007404;28;20037;-63
2023/01/15 14:28:23;;;;;;;9.95;7.50;;;;;;;;;;5010622;28;20397;-62
2023/01/15 14:30:57;;;;;;;11.32;8.20;;;;;;;;;;5003579;28;20022;-63
2023/01/15 14:33:28;;;;;;;10.30;7.97;;;;;;;;;;5005193;28;20499;-64
2023/01/15 14:35:53;;;;;;;8.52;6.88;;;;;;;;;;4982599;28;20034;-58
2023/01/15 14:38:19;;;;;;;10.05;7.10;;;;;;;;;;4984365;28;20139;-58
2023/01/15 14:40:55;;;;;;;10.45;7.13;;;;;;;;;;4998422;28;20088;-60
2023/01/15 14:43:21;;;;;;;10.75;7.88;;;;;;;;;;4997869;28;20034;-65
2023/01/15 14:45:47;;;;;;;13.50;7.53;;;;;;;;;;5001295;28;20496;-63
2023/01/15 14:48:28;;;;;;;12.23;8.38;;;;;;;;;;4998051;28;20030;-66
2023/01/15 14:50:53;;;;;;;10.43;7.40;;;;;;;;;;5001177;28;20514;-61
2023/01/15 14:53:21;;;;;;;10.77;7.88;;;;;;;;;;5004585;28;20061;-64
2023/01/15 14:55:47;;;;;;;10.07;7.78;;;;;;;;;;5002836;28;20034;-61
2023/01/15 14:58:15;;;;;;;13.07;8.40;;;;;;;;;;4998833;28;20048;-65
2023/01/15 15:00:41;;;;;;;14.02;8.10;;;;;;;;;;5004002;28;20542;-63
2023/01/15 15:03:15;;;;;;;14.65;8.93;;;;;;;;;;4999162;28;20500;-60
2023/01/15 15:05:40;;;;;;;11.60;7.80;;;;;;;;;;5004086;28;20042;-60
2023/01/15 15:08:05;;;;;;;12.10;7.50;;;;;;;;;;4989081;28;20433;-61
2023/01/15 15:10:38;;;;;;;12.27;7.83;;;;;;;;;;4988450;28;20425;-62
2023/01/15 15:13:22;;;;;;;12.27;7.88;;;;;;;;;;4980148;28;20305;-62
2023/01/15 15:15:47;;;;;;;11.20;7.38;;;;;;;;;;4995572;28;20107;-58
2023/01/15 15:18:15;;;;;;;10.82;7.65;;;;;;;;;;5008137;28;20030;-63
2023/01/15 15:20:40;;;;;;;12.07;7.65;;;;;;;;;;5004240;28;20052;-61
2023/01/15 15:23:24;;;;;;;11.60;8.27;;;;;;;;;;4999901;28;20134;-59
2023/01/15 15:25:53;;;;;;;10.98;7.57;;;;;;;;;;4999657;28;20367;-59
2023/01/15 15:28:19;;;;;;;11.85;7.90;;;;;;;;;;5002609;28;20762;-61
2023/01/15 15:30:44;;;;;;;12.53;8.70;;;;;;;;;;5002380;28;20319;-58
2023/01/15 15:33:11;;;;;;;12.40;8.57;;;;;;;;;;5001794;28;20580;-59
2023/01/15 15:35:39;;;;;;;10.80;7.90;;;;;;;;;;5004528;28;20108;-58
2023/01/15 15:38:04;;;;;;;13.05;8.88;;;;;;;;;;5005187;28;20030;-60
2023/01/15 15:40:33;;;;;;;11.73;8.30;;;;;;;;;;5003084;28;20121;-61
2023/01/15 15:48:43;;;;;;;15.32;10.27;;;;;;;;;;4990997;28;20040;-62